createdAt,value
2023-03-26T00:00:44.216Z,100684.09
2023-03-26T00:03:14.806Z,100679.59
2023-03-26T00:05:41.410Z,100679.53
2023-03-26T00:08:11.498Z,100679.53
2023-03-26T00:10:40.117Z,100679.53
2023-03-26T00:13:07.315Z,100669.81
2023-03-26T00:15:35.321Z,100667.28
2023-03-26T00:18:02.060Z,100664.78
2023-03-26T00:20:30.232Z,100661.38
2023-03-26T00:22:56.675Z,100656.22
2023-03-26T00:25:23.720Z,100659.16
2023-03-26T00:27:50.579Z,100654.25
2023-03-26T00:30:17.145Z,100650.94
2023-03-26T00:32:44.796Z,100662.72
2023-03-26T00:35:20.792Z,100659.00
2023-03-26T00:37:47.838Z,100651.75
2023-03-26T00:40:14.625Z,100652.69
2023-03-26T00:42:42.521Z,100656.16
2023-03-26T00:45:09.459Z,100651.81
2023-03-26T00:47:36.546Z,100651.81
2023-03-26T00:50:04.284Z,100652.69
2023-03-26T00:52:31.746Z,100646.38
2023-03-26T00:54:58.189Z,100654.44
2023-03-26T00:57:35.963Z,100655.34
2023-03-26T01:00:16.943Z,100653.56
2023-03-26T01:02:46.938Z,100654.50
2023-03-26T01:05:35.224Z,100650.00
2023-03-26T01:08:32.776Z,100645.59
2023-03-26T01:11:05.188Z,100637.59
2023-03-26T01:13:35.762Z,100637.59
2023-03-26T01:16:02.954Z,100632.31
2023-03-26T01:18:40.874Z,100631.53
2023-03-26T01:21:09.600Z,100626.16
2023-03-26T01:23:44.201Z,100614.56
2023-03-26T01:26:15.913Z,100615.97
2023-03-26T01:28:43.012Z,100613.66
2023-03-26T01:31:29.795Z,100608.75
2023-03-26T01:34:04.200Z,100590.47
2023-03-26T01:36:47.662Z,100592.94
2023-03-26T01:39:33.295Z,100586.38
2023-03-26T01:42:08.395Z,100594.16
2023-03-26T01:44:38.308Z,100592.81
2023-03-26T01:47:06.289Z,100592.16
2023-03-26T01:49:32.798Z,100585.22
2023-03-26T01:51:59.385Z,100585.72
2023-03-26T01:54:29.100Z,100583.63
2023-03-26T01:57:18.815Z,100575.88
2023-03-26T02:00:16.320Z,100571.03
2023-03-26T02:03:05.737Z,100569.00
2023-03-26T02:05:39.069Z,100560.81
2023-03-26T02:08:35.866Z,100573.94
2023-03-26T02:11:11.547Z,100566.53
2023-03-26T02:13:44.260Z,100560.88
2023-03-26T02:16:16.691Z,100556.28
2023-03-26T02:18:45.002Z,100547.41
2023-03-26T02:21:13.021Z,100546.84
2023-03-26T02:23:46.606Z,100543.63
2023-03-26T02:26:16.230Z,100542.16
2023-03-26T02:28:42.721Z,100537.72
2023-03-26T02:31:11.094Z,100536.06
2023-03-26T02:33:37.675Z,100528.63
2023-03-26T02:36:04.535Z,100522.97
2023-03-26T02:38:35.224Z,100526.00
2023-03-26T02:41:02.576Z,100517.19
2023-03-26T02:43:29.299Z,100512.91
2023-03-26T02:45:56.236Z,100504.88
2023-03-26T02:48:23.087Z,100507.00
2023-03-26T02:50:54.457Z,100507.34
2023-03-26T02:53:21.909Z,100507.63
2023-03-26T02:55:48.396Z,100500.81
2023-03-26T02:58:17.421Z,100504.44
2023-03-26T03:00:46.779Z,100504.56
2023-03-26T03:03:14.267Z,100495.91
2023-03-26T03:05:43.025Z,100493.88
2023-03-26T03:08:10.300Z,100485.78
2023-03-26T03:10:37.863Z,100486.66
2023-03-26T03:13:07.666Z,100490.03
2023-03-26T03:15:35.045Z,100483.63
2023-03-26T03:18:02.316Z,100485.91
2023-03-26T03:20:30.299Z,100483.50
2023-03-26T03:22:56.837Z,100483.19
2023-03-26T03:25:23.409Z,100472.91
2023-03-26T03:27:50.204Z,100480.31
2023-03-26T03:30:16.686Z,100477.22
2023-03-26T03:32:43.168Z,100483.59
2023-03-26T03:35:09.609Z,100482.09
2023-03-26T03:37:36.050Z,100487.75
2023-03-26T03:40:03.989Z,100479.09
2023-03-26T03:42:30.470Z,100480.31
2023-03-26T03:44:56.856Z,100478.66
2023-03-26T03:47:23.494Z,100485.31
2023-03-26T03:49:50.309Z,100477.50
2023-03-26T03:52:18.132Z,100479.97
2023-03-26T03:54:44.600Z,100482.28
2023-03-26T03:57:11.070Z,100477.03
2023-03-26T03:59:37.533Z,100482.59
2023-03-26T04:02:04.015Z,100490.75
2023-03-26T04:04:30.570Z,100486.16
2023-03-26T04:06:57.032Z,100485.97
2023-03-26T04:09:23.469Z,100480.25
2023-03-26T04:11:51.115Z,100485.34
2023-03-26T04:14:17.549Z,100487.69
2023-03-26T04:16:43.996Z,100487.38
2023-03-26T04:19:10.444Z,100481.66
2023-03-26T04:21:37.697Z,100475.91
2023-03-26T04:24:05.472Z,100473.53
2023-03-26T04:26:31.968Z,100478.59
2023-03-26T04:29:05.114Z,100477.38
2023-03-26T04:31:31.984Z,100483.41
2023-03-26T04:34:08.012Z,100481.38
2023-03-26T04:36:35.590Z,100474.13
2023-03-26T04:39:05.057Z,100474.13
2023-03-26T04:41:32.420Z,100474.13
2023-03-26T04:44:01.921Z,100470.53
2023-03-26T04:46:33.279Z,100470.53
2023-03-26T04:49:00.669Z,100454.63
2023-03-26T04:51:34.943Z,100455.59
2023-03-26T04:54:02.608Z,100455.53
2023-03-26T04:56:51.815Z,100445.81
2023-03-26T04:59:26.014Z,100440.47
2023-03-26T05:01:53.497Z,100442.50
2023-03-26T05:04:20.012Z,100439.81
2023-03-26T05:06:47.309Z,100430.78
2023-03-26T05:09:14.358Z,100429.75
2023-03-26T05:11:40.965Z,100436.72
2023-03-26T05:14:07.819Z,100436.88
2023-03-26T05:16:35.944Z,100442.06
2023-03-26T05:19:02.467Z,100442.16
2023-03-26T05:21:28.951Z,100449.16
2023-03-26T05:23:55.418Z,100449.84
2023-03-26T05:26:21.862Z,100441.81
2023-03-26T05:28:48.444Z,100431.97
2023-03-26T05:31:16.836Z,100434.59
2023-03-26T05:33:43.394Z,100432.09
2023-03-26T05:36:15.374Z,100425.81
2023-03-26T05:38:47.234Z,100414.28
2023-03-26T05:41:14.088Z,100410.13
2023-03-26T05:43:40.743Z,100409.47
2023-03-26T05:46:08.122Z,100408.38
2023-03-26T05:48:34.668Z,100391.53
2023-03-26T05:51:01.518Z,100389.03
2023-03-26T05:53:28.490Z,100396.25
2023-03-26T05:55:58.023Z,100389.81
2023-03-26T05:58:26.155Z,100392.22
2023-03-26T06:01:05.878Z,100385.66
2023-03-26T06:03:33.499Z,100386.09
2023-03-26T06:06:00.139Z,100395.47
2023-03-26T06:08:26.762Z,100392.81
2023-03-26T06:11:07.967Z,100397.06
2023-03-26T06:13:34.539Z,100392.22
2023-03-26T06:16:01.054Z,100383.69
2023-03-26T06:18:27.599Z,100386.94
2023-03-26T06:20:54.480Z,100387.59
2023-03-26T06:23:21.363Z,100392.53
2023-03-26T06:25:47.800Z,100396.59
2023-03-26T06:28:15.363Z,100392.59
2023-03-26T06:30:41.794Z,100395.53
2023-03-26T06:33:08.647Z,100389.78
2023-03-26T06:35:35.330Z,100384.97
2023-03-26T06:38:02.179Z,100384.53
2023-03-26T06:40:28.965Z,100387.66
2023-03-26T06:43:08.504Z,100386.31
2023-03-26T06:45:37.225Z,100400.03
2023-03-26T06:48:04.494Z,100390.16
2023-03-26T06:50:32.254Z,100391.59
2023-03-26T06:52:58.964Z,100389.53
2023-03-26T06:55:25.513Z,100390.31
2023-03-26T06:57:53.510Z,100390.94
2023-03-26T07:00:21.060Z,100387.22
2023-03-26T07:02:47.852Z,100393.28
2023-03-26T07:05:14.690Z,100396.44
2023-03-26T07:07:46.710Z,100391.69
2023-03-26T07:10:14.097Z,100394.13
2023-03-26T07:12:42.332Z,100389.38
2023-03-26T07:15:10.167Z,100389.19
2023-03-26T07:17:36.923Z,100388.78
2023-03-26T07:20:05.482Z,100391.13
2023-03-26T07:22:32.469Z,100387.19
2023-03-26T07:24:59.288Z,100391.53
2023-03-26T07:27:46.882Z,100383.91
2023-03-26T07:30:31.650Z,100384.59
2023-03-26T07:33:01.601Z,100388.41
2023-03-26T07:35:53.136Z,100389.03
2023-03-26T07:38:50.668Z,100386.94
2023-03-26T07:41:50.187Z,100381.56
2023-03-26T07:44:25.335Z,100378.88
2023-03-26T07:46:53.339Z,100382.44
2023-03-26T07:49:20.443Z,100393.38
2023-03-26T07:51:48.282Z,100380.19
2023-03-26T07:54:15.439Z,100388.41
2023-03-26T07:56:59.326Z,100397.94
2023-03-26T07:59:47.880Z,100396.41
2023-03-26T08:02:38.954Z,100390.69
2023-03-26T08:05:19.604Z,100391.44
2023-03-26T08:08:02.847Z,100393.88
2023-03-26T08:10:42.310Z,100384.94
2023-03-26T08:13:25.607Z,100388.91
2023-03-26T08:16:29.648Z,100386.94
2023-03-26T08:19:12.775Z,100392.66
2023-03-26T08:21:48.021Z,100397.66
2023-03-26T08:24:27.128Z,100390.38
2023-03-26T08:27:16.023Z,100390.16
2023-03-26T08:30:17.387Z,100402.16
2023-03-26T08:32:52.942Z,100410.38
2023-03-26T08:35:19.411Z,100407.88
2023-03-26T08:37:45.905Z,100408.03
2023-03-26T08:40:16.753Z,100410.66
2023-03-26T08:43:14.745Z,100412.53
2023-03-26T08:45:59.770Z,100412.75
2023-03-26T08:48:53.447Z,100420.88
2023-03-26T08:51:38.189Z,100418.00
2023-03-26T08:54:10.834Z,100414.91
2023-03-26T08:56:59.550Z,100412.03
2023-03-26T09:00:02.413Z,100420.13
2023-03-26T09:03:00.603Z,100418.28
2023-03-26T09:05:49.193Z,100416.44
2023-03-26T09:08:37.870Z,100413.59
2023-03-26T09:11:32.539Z,100420.81
2023-03-26T09:14:13.931Z,100421.19
2023-03-26T09:16:53.464Z,100418.75
2023-03-26T09:19:22.833Z,100419.06
2023-03-26T09:22:10.869Z,100429.56
2023-03-26T09:25:02.981Z,100428.97
2023-03-26T09:28:05.794Z,100428.47
2023-03-26T09:31:12.788Z,100427.09
2023-03-26T09:34:00.315Z,100433.19
2023-03-26T09:36:54.633Z,100441.06
2023-03-26T09:39:42.019Z,100434.84
2023-03-26T09:42:11.794Z,100430.59
2023-03-26T09:44:46.781Z,100435.75
2023-03-26T09:47:50.675Z,100438.28
2023-03-26T09:50:29.520Z,100439.88
2023-03-26T09:53:29.349Z,100444.53
2023-03-26T09:56:16.205Z,100445.06
2023-03-26T09:59:01.249Z,100435.53
2023-03-26T10:01:40.593Z,100442.59
2023-03-26T10:04:38.506Z,100446.34
2023-03-26T10:07:23.302Z,100440.38
2023-03-26T10:10:09.957Z,100438.66
2023-03-26T10:12:46.069Z,100440.53
2023-03-26T10:15:31.856Z,100452.69
2023-03-26T10:18:27.737Z,100442.78
2023-03-26T10:21:05.990Z,100450.03
2023-03-26T10:23:47.641Z,100447.16
2023-03-26T10:26:41.913Z,100444.47
2023-03-26T10:29:34.264Z,100451.44
2023-03-26T10:32:17.673Z,100460.47
2023-03-26T10:34:56.479Z,100460.19
2023-03-26T10:38:08.334Z,100463.47
2023-03-26T10:40:45.574Z,100464.91
2023-03-26T10:43:12.495Z,100465.56
2023-03-26T10:45:59.759Z,100467.72
2023-03-26T10:48:56.567Z,100457.13
2023-03-26T10:51:34.921Z,100467.00
2023-03-26T10:54:12.913Z,100473.16
2023-03-26T10:56:46.878Z,100467.25
2023-03-26T10:59:15.845Z,100473.69
2023-03-26T11:01:57.528Z,100475.69
2023-03-26T11:04:54.926Z,100481.69
2023-03-26T11:07:36.932Z,100471.38
2023-03-26T11:10:13.018Z,100485.91
2023-03-26T11:13:08.768Z,100483.34
2023-03-26T11:15:46.746Z,100489.03
2023-03-26T11:18:19.437Z,100496.59
2023-03-26T11:20:51.060Z,100495.69
2023-03-26T11:23:41.032Z,100498.63
2023-03-26T11:26:10.256Z,100506.06
2023-03-26T11:29:03.128Z,100512.66
2023-03-26T11:31:43.696Z,100516.78
2023-03-26T11:34:15.762Z,100516.13
2023-03-26T11:36:50.613Z,100521.03
2023-03-26T11:39:29.614Z,100522.59
2023-03-26T11:42:06.800Z,100521.66
2023-03-26T11:44:56.437Z,100525.84
2023-03-26T11:47:52.904Z,100528.91
2023-03-26T11:50:30.582Z,100529.53
2023-03-26T11:53:03.312Z,100537.31
2023-03-26T11:55:31.333Z,100546.66
2023-03-26T11:58:00.138Z,100546.75
2023-03-26T12:00:28.597Z,100540.06
2023-03-26T12:02:59.273Z,100555.03
2023-03-26T12:05:31.440Z,100550.38
2023-03-26T12:08:19.703Z,100555.34
2023-03-26T12:10:58.362Z,100562.34
2023-03-26T12:13:44.733Z,100563.72
2023-03-26T12:16:16.169Z,100564.69
2023-03-26T12:18:44.488Z,100576.69
2023-03-26T12:21:16.812Z,100577.69
2023-03-26T12:24:04.453Z,100579.16
2023-03-26T12:26:49.000Z,100580.56
2023-03-26T12:29:17.830Z,100575.25
2023-03-26T12:31:56.250Z,100585.88
2023-03-26T12:34:35.521Z,100589.06
2023-03-26T12:37:03.597Z,100588.97
2023-03-26T12:40:07.270Z,100596.91
2023-03-26T12:44:47.787Z,100602.47
2023-03-26T12:45:14.907Z,100606.50
2023-03-26T12:47:59.882Z,100604.38
2023-03-26T12:50:42.748Z,100620.16
2023-03-26T12:53:42.119Z,100616.16
2023-03-26T12:56:36.871Z,100622.66
2023-03-26T12:59:15.885Z,100622.13
2023-03-26T13:01:50.604Z,100628.47
2023-03-26T13:04:17.178Z,100635.59
2023-03-26T13:07:10.866Z,100630.75
2023-03-26T13:10:01.374Z,100633.84
2023-03-26T13:12:40.965Z,100629.00
2023-03-26T13:15:13.676Z,100625.50
2023-03-26T13:17:47.146Z,100628.63
2023-03-26T13:20:28.164Z,100633.19
2023-03-26T13:23:08.180Z,100634.06
2023-03-26T13:25:48.744Z,100631.47
2023-03-26T13:28:42.139Z,100647.47
2023-03-26T13:31:46.451Z,100640.97
2023-03-26T13:34:27.599Z,100636.81
2023-03-26T13:37:14.356Z,100649.50
2023-03-26T13:39:55.516Z,100653.00
2023-03-26T13:42:50.246Z,100660.16
2023-03-26T13:45:59.078Z,100666.47
2023-03-26T13:48:33.615Z,100664.56
2023-03-26T13:51:11.607Z,100662.13
2023-03-26T13:53:47.302Z,100666.78
2023-03-26T13:56:19.834Z,100670.44
2023-03-26T13:58:49.999Z,100668.97
2023-03-26T14:01:21.901Z,100675.50
2023-03-26T14:03:55.378Z,100682.53
2023-03-26T14:06:31.947Z,100675.22
2023-03-26T14:09:15.929Z,100682.78
2023-03-26T14:11:58.010Z,100676.03
2023-03-26T14:14:56.489Z,100684.88
2023-03-26T14:17:31.341Z,100693.16
2023-03-26T14:20:27.083Z,100690.56
2023-03-26T14:23:27.742Z,100690.94
2023-03-26T14:26:45.509Z,100697.94
2023-03-26T14:29:18.649Z,100711.09
2023-03-26T14:32:10.575Z,100710.69
2023-03-26T14:34:42.691Z,100717.38
2023-03-26T14:37:36.777Z,100718.78
2023-03-26T14:40:21.399Z,100726.41
2023-03-26T14:43:09.698Z,100725.72
2023-03-26T14:45:57.363Z,100739.19
2023-03-26T14:48:43.566Z,100729.19
2023-03-26T14:51:47.213Z,100742.41
2023-03-26T14:54:19.196Z,100736.03
2023-03-26T14:57:30.208Z,100752.28
2023-03-26T15:00:32.143Z,100763.72
2023-03-26T15:03:34.597Z,100763.28
2023-03-26T15:06:38.039Z,100772.06
2023-03-26T15:09:49.344Z,100770.47
2023-03-26T15:12:24.769Z,100779.13
2023-03-26T15:15:11.122Z,100774.09
2023-03-26T15:18:08.576Z,100779.34
2023-03-26T15:20:57.022Z,100780.41
2023-03-26T15:23:40.136Z,100783.53
2023-03-26T15:26:41.621Z,100784.38
2023-03-26T15:29:27.077Z,100796.63
2023-03-26T15:32:22.283Z,100798.63
2023-03-26T15:35:27.673Z,100808.00
2023-03-26T15:38:12.206Z,100817.81
2023-03-26T15:41:09.309Z,100817.81
2023-03-26T15:44:22.527Z,100823.81
2023-03-26T15:47:26.373Z,100829.88
2023-03-26T15:50:18.973Z,100832.53
2023-03-26T15:53:23.566Z,100830.81
2023-03-26T15:56:25.436Z,100845.38
2023-03-26T15:59:16.194Z,100850.53
2023-03-26T16:01:50.741Z,100861.19
2023-03-26T16:04:37.677Z,100864.81
2023-03-26T16:07:31.659Z,100869.44
2023-03-26T16:10:16.811Z,100882.25
2023-03-26T16:12:55.876Z,100887.38
2023-03-26T16:15:27.516Z,100883.84
2023-03-26T16:18:15.371Z,100887.38
2023-03-26T16:20:46.691Z,100896.56
2023-03-26T16:23:31.921Z,100905.72
2023-03-26T16:26:09.362Z,100921.84
2023-03-26T16:28:56.885Z,100912.16
2023-03-26T16:31:38.477Z,100916.16
2023-03-26T16:34:07.132Z,100919.44
2023-03-26T16:36:38.942Z,100926.19
2023-03-26T16:39:05.550Z,100929.16
2023-03-26T16:41:50.093Z,100933.22
2023-03-26T16:44:43.399Z,100935.13
2023-03-26T16:47:50.319Z,100944.31
2023-03-26T16:50:46.231Z,100949.34
2023-03-26T16:53:22.071Z,100956.03
2023-03-26T16:56:02.526Z,100947.06
2023-03-26T16:59:09.389Z,100962.97
2023-03-26T17:01:47.115Z,100965.38
2023-03-26T17:04:27.980Z,100972.41
2023-03-26T17:07:13.928Z,100971.38
2023-03-26T17:10:08.890Z,100976.41
2023-03-26T17:12:49.409Z,100983.56
2023-03-26T17:15:36.730Z,100991.91
2023-03-26T17:18:27.621Z,100999.88
2023-03-26T17:21:15.569Z,101004.50
2023-03-26T17:24:15.395Z,101001.34
2023-03-26T17:27:04.577Z,101016.38
2023-03-26T17:30:22.305Z,101018.19
2023-03-26T17:32:54.251Z,101023.28
2023-03-26T17:35:46.424Z,101031.84
2023-03-26T17:38:16.113Z,101034.97
2023-03-26T17:40:55.201Z,101035.53
2023-03-26T17:43:47.027Z,101051.16
2023-03-26T17:46:19.298Z,101046.06
2023-03-26T17:48:50.217Z,101048.09
2023-03-26T17:51:31.691Z,101059.84
2023-03-26T17:53:59.618Z,101067.97
2023-03-26T17:56:29.678Z,101068.13
2023-03-26T17:59:11.455Z,101076.16
2023-03-26T18:01:42.047Z,101076.13
2023-03-26T18:04:19.516Z,101090.38
2023-03-26T18:07:18.381Z,101094.91
2023-03-26T18:10:17.604Z,101092.41
2023-03-26T18:12:53.146Z,101104.19
2023-03-26T18:15:32.330Z,101099.91
2023-03-26T18:18:13.395Z,101107.09
2023-03-26T18:20:43.856Z,101117.22
2023-03-26T18:23:20.364Z,101122.03
2023-03-26T18:25:56.382Z,101131.97
2023-03-26T18:28:31.457Z,101135.78
2023-03-26T18:31:08.323Z,101139.50
2023-03-26T18:33:43.716Z,101143.34
2023-03-26T18:36:11.508Z,101151.63
2023-03-26T18:38:39.495Z,101161.66
2023-03-26T18:41:15.224Z,101162.69
2023-03-26T18:43:44.614Z,101174.41
2023-03-26T18:46:13.491Z,101173.72
2023-03-26T18:48:40.410Z,101176.69
2023-03-26T18:51:07.655Z,101190.28
2023-03-26T18:53:52.396Z,101185.94
2023-03-26T18:56:31.850Z,101184.31
2023-03-26T18:58:59.769Z,101184.50
2023-03-26T19:01:31.955Z,101191.75
2023-03-26T19:04:03.498Z,101204.16
2023-03-26T19:06:35.765Z,101205.94
2023-03-26T19:09:23.725Z,101220.00
2023-03-26T19:11:57.129Z,101223.06
2023-03-26T19:14:25.217Z,101221.03
2023-03-26T19:16:56.520Z,101222.78
2023-03-26T19:19:28.184Z,101222.78
2023-03-26T19:21:58.401Z,101226.38
2023-03-26T19:24:27.028Z,101229.88
2023-03-26T19:26:53.880Z,101225.34
2023-03-26T19:29:27.135Z,101229.75
2023-03-26T19:32:01.540Z,101231.66
2023-03-26T19:34:38.940Z,101244.38
2023-03-26T19:37:26.414Z,101247.13
2023-03-26T19:39:55.429Z,101256.03
2023-03-26T19:42:27.094Z,101259.59
2023-03-26T19:45:17.518Z,101257.81
2023-03-26T19:47:52.138Z,101263.31
2023-03-26T19:50:27.913Z,101257.50
2023-03-26T19:53:17.708Z,101256.75
2023-03-26T19:56:09.618Z,101263.13
2023-03-26T19:58:36.487Z,101260.41
2023-03-26T20:01:04.194Z,101277.50
2023-03-26T20:03:39.069Z,101279.34
2023-03-26T20:06:07.022Z,101283.13
2023-03-26T20:08:33.376Z,101289.75
2023-03-26T20:11:00.106Z,101294.25
2023-03-26T20:13:26.629Z,101295.19
2023-03-26T20:16:25.137Z,101304.22
2023-03-26T20:18:51.625Z,101307.94
2023-03-26T20:21:18.275Z,101308.59
2023-03-26T20:23:45.234Z,101310.16
2023-03-26T20:26:13.919Z,101310.03
2023-03-26T20:28:47.580Z,101315.38
2023-03-26T20:31:17.049Z,101323.63
2023-03-26T20:33:43.548Z,101321.97
2023-03-26T20:36:13.314Z,101331.09
2023-03-26T20:38:40.956Z,101334.59
2023-03-26T20:41:11.975Z,101336.41
2023-03-26T20:43:38.405Z,101339.00
2023-03-26T20:46:05.140Z,101343.63
2023-03-26T20:48:31.615Z,101343.63
2023-03-26T20:50:58.117Z,101350.53
2023-03-26T20:53:24.932Z,101342.69
2023-03-26T20:55:51.755Z,101350.88
2023-03-26T20:58:30.842Z,101346.63
2023-03-26T21:01:02.082Z,101345.06
2023-03-26T21:03:28.815Z,101346.22
2023-03-26T21:05:59.701Z,101348.25
2023-03-26T21:08:30.176Z,101349.28
2023-03-26T21:11:01.939Z,101347.44
2023-03-26T21:13:39.589Z,101353.59
2023-03-26T21:16:08.002Z,101366.78
2023-03-26T21:18:34.856Z,101368.25
2023-03-26T21:21:21.057Z,101366.25
2023-03-26T21:23:59.305Z,101372.19
2023-03-26T21:26:41.788Z,101379.91
2023-03-26T21:29:08.773Z,101374.47
2023-03-26T21:31:37.890Z,101376.09
2023-03-26T21:34:05.422Z,101386.78
2023-03-26T21:36:32.333Z,101385.84
2023-03-26T21:38:59.579Z,101385.84
2023-03-26T21:41:36.492Z,101391.25
2023-03-26T21:44:03.691Z,101397.72
2023-03-26T21:46:31.796Z,101400.97
2023-03-26T21:48:58.637Z,101405.97
2023-03-26T21:51:25.398Z,101405.88
2023-03-26T21:53:52.158Z,101413.59
2023-03-26T21:56:35.114Z,101412.63
2023-03-26T21:59:23.965Z,101414.66
2023-03-26T22:02:00.358Z,101428.38
2023-03-26T22:04:54.297Z,101426.88
2023-03-26T22:07:32.303Z,101434.97
2023-03-26T22:09:58.715Z,101434.97
2023-03-26T22:12:25.624Z,101450.03
2023-03-26T22:14:52.456Z,101470.34
2023-03-26T22:17:19.474Z,101478.03
2023-03-26T22:19:45.986Z,101481.44
2023-03-26T22:22:12.486Z,101498.81
2023-03-26T22:24:39.071Z,101497.22
2023-03-26T22:27:05.675Z,101514.97
2023-03-26T22:29:32.434Z,101504.22
2023-03-26T22:31:58.893Z,101502.41
2023-03-26T22:34:25.923Z,101508.44
2023-03-26T22:36:53.232Z,101496.72
2023-03-26T22:39:19.743Z,101486.69
2023-03-26T22:41:46.225Z,101490.91
2023-03-26T22:44:19.786Z,101487.38
2023-03-26T22:46:48.925Z,101491.13
2023-03-26T22:49:15.861Z,101502.97
2023-03-26T22:51:42.328Z,101503.38
2023-03-26T22:54:09.466Z,101500.94
2023-03-26T22:56:36.381Z,101509.22
2023-03-26T22:59:03.799Z,101518.03
2023-03-26T23:01:30.538Z,101519.00
2023-03-26T23:03:57.601Z,101523.50
2023-03-26T23:06:24.147Z,101532.50
2023-03-26T23:08:51.234Z,101531.66
2023-03-26T23:11:20.502Z,101534.50
2023-03-26T23:13:47.716Z,101544.47
2023-03-26T23:16:15.792Z,101543.75
2023-03-26T23:18:42.484Z,101548.22
2023-03-26T23:21:14.434Z,101557.09
2023-03-26T23:23:40.837Z,101560.53
2023-03-26T23:26:07.376Z,101565.56
2023-03-26T23:28:35.252Z,101565.09
2023-03-26T23:31:04.926Z,101568.44
2023-03-26T23:33:35.229Z,101578.16
2023-03-26T23:36:09.063Z,101582.53
2023-03-26T23:38:44.102Z,101580.78
2023-03-26T23:41:14.975Z,101589.69
2023-03-26T23:43:54.257Z,101596.84
2023-03-26T23:46:31.037Z,101597.56
2023-03-26T23:48:59.655Z,101605.25
2023-03-26T23:51:26.330Z,101599.63
2023-03-26T23:53:53.387Z,101598.78
2023-03-26T23:56:20.128Z,101610.56
2023-03-26T23:58:48.608Z,101602.97
